sensor_id;sensor_type;location;lat;lon;timestamp;temperature;humidity
1461;DHT22;724;49.910;12.530;2024-01-30T00:00:02;-2.60;1.00
1461;DHT22;724;49.910;12.530;2024-01-30T00:02:30;-2.60;1.00
1461;DHT22;724;49.910;12.530;2024-01-30T00:04:57;-2.60;1.00
1461;DHT22;724;49.910;12.530;2024-01-30T00:07:25;-2.50;1.00
1461;DHT22;724;49.910;12.530;2024-01-30T00:09:51;-2.60;1.00
1461;DHT22;724;49.910;12.530;2024-01-30T00:12:18;-2.50;1.00
1461;DHT22;724;49.910;12.530;2024-01-30T00:14:45;-2.50;1.00
1461;DHT22;724;49.910;12.530;2024-01-30T00:17:12;-2.50;1.00
1461;DHT22;724;49.910;12.530;2024-01-30T00:19:39;-2.60;1.00
1461;DHT22;724;49.910;12.530;2024-01-30T00:22:05;-2.60;1.00
1461;DHT22;724;49.910;12.530;2024-01-30T00:24:34;-2.60;1.00
1461;DHT22;724;49.910;12.530;2024-01-30T00:27:01;-2.70;1.00
1461;DHT22;724;49.910;12.530;2024-01-30T00:29:27;-2.70;1.00
1461;DHT22;724;49.910;12.530;2024-01-30T00:31:59;-2.70;1.00
1461;DHT22;724;49.910;12.530;2024-01-30T00:34:25;-2.70;1.00
1461;DHT22;724;49.910;12.530;2024-01-30T00:36:52;-2.70;1.00
1461;DHT22;724;49.910;12.530;2024-01-30T00:39:19;-2.60;1.00
1461;DHT22;724;49.910;12.530;2024-01-30T00:41:47;-2.60;1.00
1461;DHT22;724;49.910;12.530;2024-01-30T00:44:14;-2.50;1.00
1461;DHT22;724;49.910;12.530;2024-01-30T00:46:41;-2.60;1.00
1461;DHT22;724;49.910;12.530;2024-01-30T00:49:07;-2.60;1.00
1461;DHT22;724;49.910;12.530;2024-01-30T00:51:34;-2.60;1.00
1461;DHT22;724;49.910;12.530;2024-01-30T00:54:01;-2.70;1.00
1461;DHT22;724;49.910;12.530;2024-01-30T00:56:28;-2.70;1.00
1461;DHT22;724;49.910;12.530;2024-01-30T00:58:56;-2.70;1.00
1461;DHT22;724;49.910;12.530;2024-01-30T01:01:23;-2.70;1.00
1461;DHT22;724;49.910;12.530;2024-01-30T01:03:50;-2.70;1.00
1461;DHT22;724;49.910;12.530;2024-01-30T01:06:16;-2.70;1.00
1461;DHT22;724;49.910;12.530;2024-01-30T01:08:43;-2.70;1.00
1461;DHT22;724;49.910;12.530;2024-01-30T01:11:10;-2.80;1.00
1461;DHT22;724;49.910;12.530;2024-01-30T01:13:36;-2.80;1.00
1461;DHT22;724;49.910;12.530;2024-01-30T01:16:05;-2.80;1.00
1461;DHT22;724;49.910;12.530;2024-01-30T01:18:32;-2.80;1.00
1461;DHT22;724;49.910;12.530;2024-01-30T01:20:59;-2.80;1.00
1461;DHT22;724;49.910;12.530;2024-01-30T01:23:26;-2.80;1.00
1461;DHT22;724;49.910;12.530;2024-01-30T01:25:53;-2.90;1.00
1461;DHT22;724;49.910;12.530;2024-01-30T01:28:20;-2.90;1.00
1461;DHT22;724;49.910;12.530;2024-01-30T01:30:47;-2.90;1.00
1461;DHT22;724;49.910;12.530;2024-01-30T01:33:16;-2.90;1.00
1461;DHT22;724;49.910;12.530;2024-01-30T01:35:43;-2.90;1.00
1461;DHT22;724;49.910;12.530;2024-01-30T01:38:10;-3.00;1.00
1461;DHT22;724;49.910;12.530;2024-01-30T01:40:37;-3.00;1.00
1461;DHT22;724;49.910;12.530;2024-01-30T01:43:05;-3.00;1.00
1461;DHT22;724;49.910;12.530;2024-01-30T01:45:32;-3.00;1.00
1461;DHT22;724;49.910;12.530;2024-01-30T01:47:59;-3.00;1.00
1461;DHT22;724;49.910;12.530;2024-01-30T01:50:27;-3.00;1.00
1461;DHT22;724;49.910;12.530;2024-01-30T01:52:54;-2.90;1.00
1461;DHT22;724;49.910;12.530;2024-01-30T01:55:22;-2.90;1.00
1461;DHT22;724;49.910;12.530;2024-01-30T01:57:50;-2.90;1.00
1461;DHT22;724;49.910;12.530;2024-01-30T02:00:18;-2.90;1.00
1461;DHT22;724;49.910;12.530;2024-01-30T02:02:46;-2.90;1.00
1461;DHT22;724;49.910;12.530;2024-01-30T02:05:14;-2.90;1.00
1461;DHT22;724;49.910;12.530;2024-01-30T02:07:42;-2.90;16.00
1461;DHT22;724;49.910;12.530;2024-01-30T02:10:10;-2.90;50.90
1461;DHT22;724;49.910;12.530;2024-01-30T02:12:37;-2.90;91.40
1461;DHT22;724;49.910;12.530;2024-01-30T02:15:04;-2.90;99.90
1461;DHT22;724;49.910;12.530;2024-01-30T02:17:33;-2.70;99.90
1461;DHT22;724;49.910;12.530;2024-01-30T02:20:00;-2.60;99.90
1461;DHT22;724;49.910;12.530;2024-01-30T02:22:28;-2.60;99.90
1461;DHT22;724;49.910;12.530;2024-01-30T02:24:55;-2.60;99.90
1461;DHT22;724;49.910;12.530;2024-01-30T02:27:22;-2.60;99.90
1461;DHT22;724;49.910;12.530;2024-01-30T02:29:48;-2.70;99.90
1461;DHT22;724;49.910;12.530;2024-01-30T02:32:15;-2.80;99.90
1461;DHT22;724;49.910;12.530;2024-01-30T02:34:42;-2.90;99.90
1461;DHT22;724;49.910;12.530;2024-01-30T02:37:09;-2.90;99.90
1461;DHT22;724;49.910;12.530;2024-01-30T02:39:37;-2.90;99.90
1461;DHT22;724;49.910;12.530;2024-01-30T02:42:04;-3.00;99.90
1461;DHT22;724;49.910;12.530;2024-01-30T02:44:31;-2.90;99.90
1461;DHT22;724;49.910;12.530;2024-01-30T02:46:58;-3.00;99.90
1461;DHT22;724;49.910;12.530;2024-01-30T02:49:25;-3.00;99.90
1461;DHT22;724;49.910;12.530;2024-01-30T02:51:52;-3.00;99.90
1461;DHT22;724;49.910;12.530;2024-01-30T02:54:19;-3.10;99.90
1461;DHT22;724;49.910;12.530;2024-01-30T02:56:47;-3.10;99.90
1461;DHT22;724;49.910;12.530;2024-01-30T02:59:14;-3.00;99.90
1461;DHT22;724;49.910;12.530;2024-01-30T03:01:44;-3.10;99.90
1461;DHT22;724;49.910;12.530;2024-01-30T03:04:11;-3.10;99.90
1461;DHT22;724;49.910;12.530;2024-01-30T03:06:38;-3.10;99.90
1461;DHT22;724;49.910;12.530;2024-01-30T03:09:05;-3.20;99.90
1461;DHT22;724;49.910;12.530;2024-01-30T03:11:32;-3.20;99.90
1461;DHT22;724;49.910;12.530;2024-01-30T03:14:00;-3.20;99.90
1461;DHT22;724;49.910;12.530;2024-01-30T03:16:27;-3.20;99.90
1461;DHT22;724;49.910;12.530;2024-01-30T03:18:53;-3.20;99.90
1461;DHT22;724;49.910;12.530;2024-01-30T03:21:20;-3.20;99.90
1461;DHT22;724;49.910;12.530;2024-01-30T03:23:47;-3.20;99.90
1461;DHT22;724;49.910;12.530;2024-01-30T03:26:14;-3.20;99.90
1461;DHT22;724;49.910;12.530;2024-01-30T03:28:41;-3.20;99.90
1461;DHT22;724;49.910;12.530;2024-01-30T03:31:09;-3.30;99.90
1461;DHT22;724;49.910;12.530;2024-01-30T03:33:36;-3.30;99.90
1461;DHT22;724;49.910;12.530;2024-01-30T03:36:04;-3.30;99.90
1461;DHT22;724;49.910;12.530;2024-01-30T03:38:31;-3.30;99.90
1461;DHT22;724;49.910;12.530;2024-01-30T03:40:59;-3.30;99.90
1461;DHT22;724;49.910;12.530;2024-01-30T03:43:26;-3.30;99.90
1461;DHT22;724;49.910;12.530;2024-01-30T03:45:52;-3.30;99.90
1461;DHT22;724;49.910;12.530;2024-01-30T03:48:21;-3.30;99.90
1461;DHT22;724;49.910;12.530;2024-01-30T03:50:48;-3.30;99.90
1461;DHT22;724;49.910;12.530;2024-01-30T03:53:14;-3.30;99.90
1461;DHT22;724;49.910;12.530;2024-01-30T03:55:41;-3.30;99.90
1461;DHT22;724;49.910;12.530;2024-01-30T03:58:08;-3.30;99.90
1461;DHT22;724;49.910;12.530;2024-01-30T04:00:35;-3.40;99.90
1461;DHT22;724;49.910;12.530;2024-01-30T04:03:02;-3.30;99.90
1461;DHT22;724;49.910;12.530;2024-01-30T04:05:30;-3.30;99.90
1461;DHT22;724;49.910;12.530;2024-01-30T04:07:57;-3.30;99.90
1461;DHT22;724;49.910;12.530;2024-01-30T04:10:23;-3.30;99.90
1461;DHT22;724;49.910;12.530;2024-01-30T04:12:51;-3.30;99.90
1461;DHT22;724;49.910;12.530;2024-01-30T04:15:19;-3.30;99.90
1461;DHT22;724;49.910;12.530;2024-01-30T04:17:46;-3.30;99.90
1461;DHT22;724;49.910;12.530;2024-01-30T04:20:14;-3.30;99.90
1461;DHT22;724;49.910;12.530;2024-01-30T04:22:43;-3.30;99.90
1461;DHT22;724;49.910;12.530;2024-01-30T04:25:10;-3.40;99.90
1461;DHT22;724;49.910;12.530;2024-01-30T04:27:37;-3.40;99.90
1461;DHT22;724;49.910;12.530;2024-01-30T04:30:05;-3.40;99.90
1461;DHT22;724;49.910;12.530;2024-01-30T04:32:32;-3.40;99.90
1461;DHT22;724;49.910;12.530;2024-01-30T04:34:58;-3.30;99.90
1461;DHT22;724;49.910;12.530;2024-01-30T04:37:25;-3.40;99.90
1461;DHT22;724;49.910;12.530;2024-01-30T04:39:53;-3.40;99.90
1461;DHT22;724;49.910;12.530;2024-01-30T04:42:20;-3.40;99.90
1461;DHT22;724;49.910;12.530;2024-01-30T04:44:47;-3.50;99.90
1461;DHT22;724;49.910;12.530;2024-01-30T04:47:14;-3.40;99.90
1461;DHT22;724;49.910;12.530;2024-01-30T04:49:40;-3.50;99.90
1461;DHT22;724;49.910;12.530;2024-01-30T04:52:07;-3.50;99.90
1461;DHT22;724;49.910;12.530;2024-01-30T04:54:35;-3.50;99.90
1461;DHT22;724;49.910;12.530;2024-01-30T04:57:03;-3.60;99.90
1461;DHT22;724;49.910;12.530;2024-01-30T04:59:34;-3.60;99.90
1461;DHT22;724;49.910;12.530;2024-01-30T05:02:00;-3.50;99.90
1461;DHT22;724;49.910;12.530;2024-01-30T05:04:27;-3.60;99.90
1461;DHT22;724;49.910;12.530;2024-01-30T05:06:54;-3.60;99.90
1461;DHT22;724;49.910;12.530;2024-01-30T05:09:20;-3.60;99.90
1461;DHT22;724;49.910;12.530;2024-01-30T05:11:47;-3.60;99.90
1461;DHT22;724;49.910;12.530;2024-01-30T05:14:15;-3.50;99.90
1461;DHT22;724;49.910;12.530;2024-01-30T05:16:49;-3.50;99.90
1461;DHT22;724;49.910;12.530;2024-01-30T05:19:16;-3.60;99.90
1461;DHT22;724;49.910;12.530;2024-01-30T05:21:44;-3.60;99.90
1461;DHT22;724;49.910;12.530;2024-01-30T05:24:11;-3.70;99.90
1461;DHT22;724;49.910;12.530;2024-01-30T05:26:38;-3.60;99.90
1461;DHT22;724;49.910;12.530;2024-01-30T05:29:05;-3.70;99.90
1461;DHT22;724;49.910;12.530;2024-01-30T05:31:33;-3.70;99.90
1461;DHT22;724;49.910;12.530;2024-01-30T05:33:59;-3.70;99.90
1461;DHT22;724;49.910;12.530;2024-01-30T05:36:26;-3.70;99.90
1461;DHT22;724;49.910;12.530;2024-01-30T05:38:53;-3.60;99.90
1461;DHT22;724;49.910;12.530;2024-01-30T05:41:20;-3.60;99.90
1461;DHT22;724;49.910;12.530;2024-01-30T05:43:47;-3.70;99.90
1461;DHT22;724;49.910;12.530;2024-01-30T05:46:14;-3.70;99.90
1461;DHT22;724;49.910;12.530;2024-01-30T05:48:42;-3.70;99.90
1461;DHT22;724;49.910;12.530;2024-01-30T05:51:09;-3.70;99.90
1461;DHT22;724;49.910;12.530;2024-01-30T05:53:35;-3.70;99.90
1461;DHT22;724;49.910;12.530;2024-01-30T05:56:02;-3.70;99.90
1461;DHT22;724;49.910;12.530;2024-01-30T05:58:29;-3.70;99.90
1461;DHT22;724;49.910;12.530;2024-01-30T06:00:56;-3.50;99.90
1461;DHT22;724;49.910;12.530;2024-01-30T06:03:23;-3.20;99.90
1461;DHT22;724;49.910;12.530;2024-01-30T06:05:51;-3.00;99.90
1461;DHT22;724;49.910;12.530;2024-01-30T06:08:18;-2.90;99.90
1461;DHT22;724;49.910;12.530;2024-01-30T06:10:45;-2.90;99.90
1461;DHT22;724;49.910;12.530;2024-01-30T06:13:13;-2.70;99.90
1461;DHT22;724;49.910;12.530;2024-01-30T06:15:40;-2.60;99.90
1461;DHT22;724;49.910;12.530;2024-01-30T06:18:07;-2.60;99.90
1461;DHT22;724;49.910;12.530;2024-01-30T06:20:34;-2.60;99.90
1461;DHT22;724;49.910;12.530;2024-01-30T06:23:02;-2.60;99.90
1461;DHT22;724;49.910;12.530;2024-01-30T06:25:29;-2.60;99.90
1461;DHT22;724;49.910;12.530;2024-01-30T06:27:56;-2.70;99.90
1461;DHT22;724;49.910;12.530;2024-01-30T06:30:22;-2.80;99.90
1461;DHT22;724;49.910;12.530;2024-01-30T06:32:49;-2.80;99.90
1461;DHT22;724;49.910;12.530;2024-01-30T06:35:16;-2.80;99.90
1461;DHT22;724;49.910;12.530;2024-01-30T06:37:43;-2.70;99.90
1461;DHT22;724;49.910;12.530;2024-01-30T06:40:12;-2.80;99.90
1461;DHT22;724;49.910;12.530;2024-01-30T06:42:38;-2.70;99.90
1461;DHT22;724;49.910;12.530;2024-01-30T06:45:06;-2.70;99.90
1461;DHT22;724;49.910;12.530;2024-01-30T06:47:33;-2.60;99.90
1461;DHT22;724;49.910;12.530;2024-01-30T06:50:00;-2.60;99.90
1461;DHT22;724;49.910;12.530;2024-01-30T06:52:27;-2.50;99.90
1461;DHT22;724;49.910;12.530;2024-01-30T06:54:54;-2.50;99.90
1461;DHT22;724;49.910;12.530;2024-01-30T06:57:22;-2.50;99.90
1461;DHT22;724;49.910;12.530;2024-01-30T06:59:49;-2.40;99.90
1461;DHT22;724;49.910;12.530;2024-01-30T07:02:15;-2.40;99.90
1461;DHT22;724;49.910;12.530;2024-01-30T07:04:42;-2.30;99.90
1461;DHT22;724;49.910;12.530;2024-01-30T07:07:09;-2.40;99.90
1461;DHT22;724;49.910;12.530;2024-01-30T07:09:38;-2.40;99.90
1461;DHT22;724;49.910;12.530;2024-01-30T07:12:05;-2.30;99.90
1461;DHT22;724;49.910;12.530;2024-01-30T07:14:34;-2.30;99.90
1461;DHT22;724;49.910;12.530;2024-01-30T07:17:01;-2.40;99.90
1461;DHT22;724;49.910;12.530;2024-01-30T07:19:27;-2.40;99.90
1461;DHT22;724;49.910;12.530;2024-01-30T07:21:54;-2.30;99.90
1461;DHT22;724;49.910;12.530;2024-01-30T07:24:21;-2.30;99.90
1461;DHT22;724;49.910;12.530;2024-01-30T07:26:48;-2.20;99.90
1461;DHT22;724;49.910;12.530;2024-01-30T07:29:15;-2.20;99.90
1461;DHT22;724;49.910;12.530;2024-01-30T07:31:43;-2.10;99.90
1461;DHT22;724;49.910;12.530;2024-01-30T07:34:10;-2.00;99.90
1461;DHT22;724;49.910;12.530;2024-01-30T07:36:38;-2.10;99.90
1461;DHT22;724;49.910;12.530;2024-01-30T07:39:05;-1.80;99.90
1461;DHT22;724;49.910;12.530;2024-01-30T07:41:32;-1.80;99.90
1461;DHT22;724;49.910;12.530;2024-01-30T07:43:59;-1.90;99.90
1461;DHT22;724;49.910;12.530;2024-01-30T07:46:25;-2.10;99.90
1461;DHT22;724;49.910;12.530;2024-01-30T07:48:54;-1.80;99.90
1461;DHT22;724;49.910;12.530;2024-01-30T07:51:21;-1.80;99.90
1461;DHT22;724;49.910;12.530;2024-01-30T07:53:48;-1.50;99.90
1461;DHT22;724;49.910;12.530;2024-01-30T07:56:14;-1.40;99.90
1461;DHT22;724;49.910;12.530;2024-01-30T07:58:41;-1.50;99.90
1461;DHT22;724;49.910;12.530;2024-01-30T08:01:08;-1.30;99.90
1461;DHT22;724;49.910;12.530;2024-01-30T08:03:35;-1.40;99.90
1461;DHT22;724;49.910;12.530;2024-01-30T08:06:04;-1.20;99.90
1461;DHT22;724;49.910;12.530;2024-01-30T08:08:32;-1.10;99.90
1461;DHT22;724;49.910;12.530;2024-01-30T08:10:58;-1.20;99.90
1461;DHT22;724;49.910;12.530;2024-01-30T08:13:25;-1.00;99.90
1461;DHT22;724;49.910;12.530;2024-01-30T08:15:52;-1.00;99.90
1461;DHT22;724;49.910;12.530;2024-01-30T08:18:19;-0.90;99.90
1461;DHT22;724;49.910;12.530;2024-01-30T08:20:45;-0.80;99.90
1461;DHT22;724;49.910;12.530;2024-01-30T08:23:13;-0.60;99.90
1461;DHT22;724;49.910;12.530;2024-01-30T08:25:40;-0.80;99.90
1461;DHT22;724;49.910;12.530;2024-01-30T08:28:07;-0.70;99.90
1461;DHT22;724;49.910;12.530;2024-01-30T08:30:34;-1.00;99.90
1461;DHT22;724;49.910;12.530;2024-01-30T08:33:01;-0.70;99.90
1461;DHT22;724;49.910;12.530;2024-01-30T08:35:28;-0.20;99.90
1461;DHT22;724;49.910;12.530;2024-01-30T08:37:57;0.20;1.00
1461;DHT22;724;49.910;12.530;2024-01-30T08:40:25;0.70;99.90
1461;DHT22;724;49.910;12.530;2024-01-30T08:42:52;1.20;1.00
1461;DHT22;724;49.910;12.530;2024-01-30T08:45:18;1.80;1.00
1461;DHT22;724;49.910;12.530;2024-01-30T08:47:45;1.70;1.00
1461;DHT22;724;49.910;12.530;2024-01-30T08:50:12;1.80;99.90
1461;DHT22;724;49.910;12.530;2024-01-30T08:52:39;2.40;1.00
1461;DHT22;724;49.910;12.530;2024-01-30T08:55:06;2.10;1.00
1461;DHT22;724;49.910;12.530;2024-01-30T08:57:34;2.80;1.00
1461;DHT22;724;49.910;12.530;2024-01-30T09:00:01;2.00;99.90
1461;DHT22;724;49.910;12.530;2024-01-30T09:02:32;2.00;99.90
1461;DHT22;724;49.910;12.530;2024-01-30T09:04:59;2.00;99.90
1461;DHT22;724;49.910;12.530;2024-01-30T09:07:25;2.30;99.90
1461;DHT22;724;49.910;12.530;2024-01-30T09:09:52;2.60;99.90
1461;DHT22;724;49.910;12.530;2024-01-30T09:12:19;2.70;95.60
1461;DHT22;724;49.910;12.530;2024-01-30T09:14:47;3.60;10.60
1461;DHT22;724;49.910;12.530;2024-01-30T09:17:14;4.00;1.00
1461;DHT22;724;49.910;12.530;2024-01-30T09:19:40;4.40;1.00
1461;DHT22;724;49.910;12.530;2024-01-30T09:22:07;5.10;1.00
1461;DHT22;724;49.910;12.530;2024-01-30T09:24:34;5.00;1.00
1461;DHT22;724;49.910;12.530;2024-01-30T09:27:01;5.20;99.90
1461;DHT22;724;49.910;12.530;2024-01-30T09:29:27;5.40;99.90
1461;DHT22;724;49.910;12.530;2024-01-30T09:31:56;6.10;99.90
1461;DHT22;724;49.910;12.530;2024-01-30T09:34:23;6.80;99.90
1461;DHT22;724;49.910;12.530;2024-01-30T09:36:50;7.60;85.80
1461;DHT22;724;49.910;12.530;2024-01-30T09:39:16;7.80;1.00
1461;DHT22;724;49.910;12.530;2024-01-30T09:41:49;9.20;1.00
1461;DHT22;724;49.910;12.530;2024-01-30T09:44:16;10.00;1.00
1461;DHT22;724;49.910;12.530;2024-01-30T09:46:43;11.70;1.00
1461;DHT22;724;49.910;12.530;2024-01-30T09:49:13;11.70;1.00
1461;DHT22;724;49.910;12.530;2024-01-30T09:51:41;12.20;1.00
1461;DHT22;724;49.910;12.530;2024-01-30T09:54:08;11.40;1.00
1461;DHT22;724;49.910;12.530;2024-01-30T09:56:36;12.10;1.00
1461;DHT22;724;49.910;12.530;2024-01-30T09:59:03;12.10;1.00
1461;DHT22;724;49.910;12.530;2024-01-30T10:01:30;13.20;1.00
1461;DHT22;724;49.910;12.530;2024-01-30T10:03:57;13.20;99.90
1461;DHT22;724;49.910;12.530;2024-01-30T10:06:26;12.80;99.90
1461;DHT22;724;49.910;12.530;2024-01-30T10:08:54;13.10;99.90
1461;DHT22;724;49.910;12.530;2024-01-30T10:11:21;10.30;99.90
1461;DHT22;724;49.910;12.530;2024-01-30T10:13:47;8.80;99.90
1461;DHT22;724;49.910;12.530;2024-01-30T10:16:15;7.60;99.90
1461;DHT22;724;49.910;12.530;2024-01-30T10:18:42;7.80;99.90
1461;DHT22;724;49.910;12.530;2024-01-30T10:21:09;8.70;99.90
1461;DHT22;724;49.910;12.530;2024-01-30T10:23:38;8.80;99.90
1461;DHT22;724;49.910;12.530;2024-01-30T10:26:06;10.80;99.90
1461;DHT22;724;49.910;12.530;2024-01-30T10:28:33;12.60;99.90
1461;DHT22;724;49.910;12.530;2024-01-30T10:31:00;13.30;99.90
1461;DHT22;724;49.910;12.530;2024-01-30T10:33:29;13.60;99.90
1461;DHT22;724;49.910;12.530;2024-01-30T10:36:00;14.10;99.90
1461;DHT22;724;49.910;12.530;2024-01-30T10:38:29;14.30;99.90
1461;DHT22;724;49.910;12.530;2024-01-30T10:40:58;13.70;99.90
1461;DHT22;724;49.910;12.530;2024-01-30T10:43:30;13.70;99.90
1461;DHT22;724;49.910;12.530;2024-01-30T10:45:58;14.30;99.90
1461;DHT22;724;49.910;12.530;2024-01-30T10:48:30;13.80;99.90
1461;DHT22;724;49.910;12.530;2024-01-30T10:50:59;13.60;99.90
1461;DHT22;724;49.910;12.530;2024-01-30T10:53:31;14.00;99.90
1461;DHT22;724;49.910;12.530;2024-01-30T10:55:59;14.20;99.90
1461;DHT22;724;49.910;12.530;2024-01-30T10:58:27;14.50;99.90
1461;DHT22;724;49.910;12.530;2024-01-30T11:00:55;14.70;99.90
1461;DHT22;724;49.910;12.530;2024-01-30T11:03:22;14.70;99.90
1461;DHT22;724;49.910;12.530;2024-01-30T11:05:49;14.00;99.90
1461;DHT22;724;49.910;12.530;2024-01-30T11:08:23;12.20;99.90
1461;DHT22;724;49.910;12.530;2024-01-30T11:10:55;11.10;90.80
1461;DHT22;724;49.910;12.530;2024-01-30T11:13:26;10.40;91.00
1461;DHT22;724;49.910;12.530;2024-01-30T11:15:54;10.10;93.30
1461;DHT22;724;49.910;12.530;2024-01-30T11:18:24;10.80;99.90
1461;DHT22;724;49.910;12.530;2024-01-30T11:20:51;10.30;94.20
1461;DHT22;724;49.910;12.530;2024-01-30T11:23:18;9.20;91.80
1461;DHT22;724;49.910;12.530;2024-01-30T11:25:45;9.10;99.90
1461;DHT22;724;49.910;12.530;2024-01-30T11:28:15;9.40;99.90
1461;DHT22;724;49.910;12.530;2024-01-30T11:30:44;9.10;99.90
1461;DHT22;724;49.910;12.530;2024-01-30T11:33:13;9.90;99.90
1461;DHT22;724;49.910;12.530;2024-01-30T11:35:41;9.60;99.90
1461;DHT22;724;49.910;12.530;2024-01-30T11:38:09;9.60;99.90
1461;DHT22;724;49.910;12.530;2024-01-30T11:40:37;9.50;99.90
1461;DHT22;724;49.910;12.530;2024-01-30T11:43:06;9.20;99.90
1461;DHT22;724;49.910;12.530;2024-01-30T11:45:34;8.80;99.90
1461;DHT22;724;49.910;12.530;2024-01-30T11:48:03;9.20;99.90
1461;DHT22;724;49.910;12.530;2024-01-30T11:50:30;9.00;99.90
1461;DHT22;724;49.910;12.530;2024-01-30T11:52:58;8.60;99.90
1461;DHT22;724;49.910;12.530;2024-01-30T11:55:25;8.80;99.90
1461;DHT22;724;49.910;12.530;2024-01-30T11:57:55;9.20;99.90
1461;DHT22;724;49.910;12.530;2024-01-30T12:00:22;9.90;99.90
1461;DHT22;724;49.910;12.530;2024-01-30T12:02:49;9.10;96.60
1461;DHT22;724;49.910;12.530;2024-01-30T12:05:19;9.00;95.90
1461;DHT22;724;49.910;12.530;2024-01-30T12:07:46;8.70;92.30
1461;DHT22;724;49.910;12.530;2024-01-30T12:10:16;8.70;92.30
1461;DHT22;724;49.910;12.530;2024-01-30T12:12:57;9.00;99.70
1461;DHT22;724;49.910;12.530;2024-01-30T12:15:24;9.00;93.20
1461;DHT22;724;49.910;12.530;2024-01-30T12:17:51;8.70;88.50
1461;DHT22;724;49.910;12.530;2024-01-30T12:20:20;8.80;92.30
1461;DHT22;724;49.910;12.530;2024-01-30T12:22:48;8.80;88.50
1461;DHT22;724;49.910;12.530;2024-01-30T12:25:16;9.00;89.70
1461;DHT22;724;49.910;12.530;2024-01-30T12:27:44;8.90;75.10
1461;DHT22;724;49.910;12.530;2024-01-30T12:30:13;8.60;62.00
1461;DHT22;724;49.910;12.530;2024-01-30T12:32:41;8.20;62.40
1461;DHT22;724;49.910;12.530;2024-01-30T12:35:10;8.00;51.10
1461;DHT22;724;49.910;12.530;2024-01-30T12:37:38;7.50;42.80
1461;DHT22;724;49.910;12.530;2024-01-30T12:40:06;7.70;53.20
1461;DHT22;724;49.910;12.530;2024-01-30T12:42:33;7.60;49.70
1461;DHT22;724;49.910;12.530;2024-01-30T12:45:01;7.60;52.30
1461;DHT22;724;49.910;12.530;2024-01-30T12:47:28;8.00;64.30
1461;DHT22;724;49.910;12.530;2024-01-30T12:49:55;8.10;55.00
1461;DHT22;724;49.910;12.530;2024-01-30T12:52:22;8.10;54.20
1461;DHT22;724;49.910;12.530;2024-01-30T12:54:50;8.10;51.60
1461;DHT22;724;49.910;12.530;2024-01-30T12:57:17;8.10;48.40
1461;DHT22;724;49.910;12.530;2024-01-30T12:59:45;7.70;33.20
1461;DHT22;724;49.910;12.530;2024-01-30T13:02:12;8.10;54.50
1461;DHT22;724;49.910;12.530;2024-01-30T13:04:39;7.60;36.00
1461;DHT22;724;49.910;12.530;2024-01-30T13:07:06;7.90;46.10
1461;DHT22;724;49.910;12.530;2024-01-30T13:09:33;8.30;55.40
1461;DHT22;724;49.910;12.530;2024-01-30T13:12:02;8.00;30.70
1461;DHT22;724;49.910;12.530;2024-01-30T13:14:28;7.80;30.90
1461;DHT22;724;49.910;12.530;2024-01-30T13:16:55;7.80;40.20
1461;DHT22;724;49.910;12.530;2024-01-30T13:19:22;8.10;46.80
1461;DHT22;724;49.910;12.530;2024-01-30T13:21:49;7.70;29.90
1461;DHT22;724;49.910;12.530;2024-01-30T13:24:15;7.80;38.40
1461;DHT22;724;49.910;12.530;2024-01-30T13:26:46;7.10;65.20
1461;DHT22;724;49.910;12.530;2024-01-30T13:29:15;7.00;98.90
1461;DHT22;724;49.910;12.530;2024-01-30T13:31:41;7.00;99.90
1461;DHT22;724;49.910;12.530;2024-01-30T13:34:09;6.20;99.90
1461;DHT22;724;49.910;12.530;2024-01-30T13:36:36;6.00;99.90
1461;DHT22;724;49.910;12.530;2024-01-30T13:39:03;5.70;99.90
1461;DHT22;724;49.910;12.530;2024-01-30T13:41:30;5.50;99.90
1461;DHT22;724;49.910;12.530;2024-01-30T13:43:57;5.50;99.90
1461;DHT22;724;49.910;12.530;2024-01-30T13:46:25;5.50;99.90
1461;DHT22;724;49.910;12.530;2024-01-30T13:48:52;5.60;99.90
1461;DHT22;724;49.910;12.530;2024-01-30T13:51:19;5.80;99.90
1461;DHT22;724;49.910;12.530;2024-01-30T13:53:45;5.90;99.90
1461;DHT22;724;49.910;12.530;2024-01-30T13:56:12;5.90;99.90
1461;DHT22;724;49.910;12.530;2024-01-30T13:58:39;5.70;99.90
1461;DHT22;724;49.910;12.530;2024-01-30T14:01:06;5.80;99.90
1461;DHT22;724;49.910;12.530;2024-01-30T14:03:34;5.90;99.90
1461;DHT22;724;49.910;12.530;2024-01-30T14:06:00;5.50;99.90
1461;DHT22;724;49.910;12.530;2024-01-30T14:08:27;5.60;99.90
1461;DHT22;724;49.910;12.530;2024-01-30T14:10:54;5.70;99.90
1461;DHT22;724;49.910;12.530;2024-01-30T14:13:21;5.60;99.90
1461;DHT22;724;49.910;12.530;2024-01-30T14:15:50;5.50;99.90
1461;DHT22;724;49.910;12.530;2024-01-30T14:18:17;5.40;99.90
1461;DHT22;724;49.910;12.530;2024-01-30T14:20:45;5.70;99.90
1461;DHT22;724;49.910;12.530;2024-01-30T14:23:12;5.40;99.90
1461;DHT22;724;49.910;12.530;2024-01-30T14:25:38;5.30;99.90
1461;DHT22;724;49.910;12.530;2024-01-30T14:28:06;5.40;99.90
1461;DHT22;724;49.910;12.530;2024-01-30T14:30:32;5.30;99.90
1461;DHT22;724;49.910;12.530;2024-01-30T14:32:59;5.40;99.90
1461;DHT22;724;49.910;12.530;2024-01-30T14:35:26;4.60;99.90
1461;DHT22;724;49.910;12.530;2024-01-30T14:37:54;4.70;99.90
1461;DHT22;724;49.910;12.530;2024-01-30T14:40:21;4.90;99.90
1461;DHT22;724;49.910;12.530;2024-01-30T14:42:47;4.60;99.90
1461;DHT22;724;49.910;12.530;2024-01-30T14:45:14;4.20;99.90
1461;DHT22;724;49.910;12.530;2024-01-30T14:47:41;4.30;1.00
1461;DHT22;724;49.910;12.530;2024-01-30T14:50:08;4.40;1.00
1461;DHT22;724;49.910;12.530;2024-01-30T14:52:35;4.20;1.00
1461;DHT22;724;49.910;12.530;2024-01-30T14:55:04;4.00;1.00
1461;DHT22;724;49.910;12.530;2024-01-30T14:57:31;4.00;1.00
1461;DHT22;724;49.910;12.530;2024-01-30T15:00:00;3.70;1.00
1461;DHT22;724;49.910;12.530;2024-01-30T15:02:27;3.70;1.00
1461;DHT22;724;49.910;12.530;2024-01-30T15:04:53;3.70;1.00
1461;DHT22;724;49.910;12.530;2024-01-30T15:07:20;3.60;1.00
1461;DHT22;724;49.910;12.530;2024-01-30T15:09:47;3.40;1.00
1461;DHT22;724;49.910;12.530;2024-01-30T15:12:15;3.40;1.00
1461;DHT22;724;49.910;12.530;2024-01-30T15:14:42;3.30;1.00
1461;DHT22;724;49.910;12.530;2024-01-30T15:17:16;3.40;1.00
1461;DHT22;724;49.910;12.530;2024-01-30T15:19:42;3.30;1.00
1461;DHT22;724;49.910;12.530;2024-01-30T15:22:09;3.10;1.00
1461;DHT22;724;49.910;12.530;2024-01-30T15:24:36;3.40;1.00
1461;DHT22;724;49.910;12.530;2024-01-30T15:27:03;3.50;1.00
1461;DHT22;724;49.910;12.530;2024-01-30T15:29:31;3.10;1.00
1461;DHT22;724;49.910;12.530;2024-01-30T15:31:58;3.10;1.00
1461;DHT22;724;49.910;12.530;2024-01-30T15:34:25;3.30;1.00
1461;DHT22;724;49.910;12.530;2024-01-30T15:36:52;3.30;1.00
1461;DHT22;724;49.910;12.530;2024-01-30T15:39:18;3.30;1.00
1461;DHT22;724;49.910;12.530;2024-01-30T15:41:45;3.00;1.00
1461;DHT22;724;49.910;12.530;2024-01-30T15:44:12;3.00;1.00
1461;DHT22;724;49.910;12.530;2024-01-30T15:46:40;3.00;1.00
1461;DHT22;724;49.910;12.530;2024-01-30T15:49:07;3.10;1.00
1461;DHT22;724;49.910;12.530;2024-01-30T15:51:33;3.00;1.00
1461;DHT22;724;49.910;12.530;2024-01-30T15:54:01;2.60;1.00
1461;DHT22;724;49.910;12.530;2024-01-30T15:56:27;2.50;1.00
1461;DHT22;724;49.910;12.530;2024-01-30T15:58:54;2.60;1.00
1461;DHT22;724;49.910;12.530;2024-01-30T16:01:22;2.70;1.00
1461;DHT22;724;49.910;12.530;2024-01-30T16:03:50;2.60;1.00
1461;DHT22;724;49.910;12.530;2024-01-30T16:06:17;2.50;1.00
1461;DHT22;724;49.910;12.530;2024-01-30T16:08:44;2.50;1.00
1461;DHT22;724;49.910;12.530;2024-01-30T16:11:10;2.50;1.00